createdAt,value
2022-12-09T00:02:26.631Z,40.70
2022-12-09T00:07:27.332Z,38.55
2022-12-09T00:09:57.901Z,40.67
2022-12-09T00:12:28.566Z,40.65
2022-12-09T00:17:28.931Z,39.65
2022-12-09T00:19:59.803Z,36.45
2022-12-09T00:22:31.897Z,39.72
2022-12-09T00:25:03.060Z,38.53
2022-12-09T00:27:33.459Z,36.75
2022-12-09T00:30:04.387Z,37.80
2022-12-09T00:32:35.600Z,36.70
2022-12-09T00:35:06.982Z,36.28
2022-12-09T00:37:37.688Z,36.97
2022-12-09T00:40:08.764Z,36.55
2022-12-09T00:42:38.843Z,35.38
2022-12-09T00:45:09.910Z,35.22
2022-12-09T00:47:40.143Z,36.10
2022-12-09T00:50:10.821Z,38.35
2022-12-09T00:55:10.652Z,39.70
2022-12-09T00:57:42.094Z,40.33
2022-12-09T01:00:12.693Z,37.78
2022-12-09T01:02:43.523Z,40.75
2022-12-09T01:05:13.748Z,39.22
2022-12-09T01:07:44.167Z,44.05
2022-12-09T01:10:14.252Z,43.03
2022-12-09T01:12:45.043Z,43.08
2022-12-09T01:15:15.427Z,54.08
2022-12-09T01:17:45.611Z,77.30
2022-12-09T01:20:15.793Z,79.78
2022-12-09T01:22:46.009Z,80.10
2022-12-09T01:25:16.643Z,76.80
2022-12-09T01:27:46.900Z,71.03
2022-12-09T01:30:17.203Z,65.32
2022-12-09T01:32:50.973Z,71.43
2022-12-09T01:35:21.365Z,74.47
2022-12-09T01:37:51.300Z,58.20
2022-12-09T01:40:21.970Z,57.70
2022-12-09T01:42:53.432Z,60.17
2022-12-09T01:45:43.530Z,61.05
2022-12-09T01:48:22.350Z,59.50
2022-12-09T01:51:00.646Z,62.75
2022-12-09T01:53:37.032Z,62.22
2022-12-09T01:56:13.911Z,64.53
2022-12-09T01:58:44.854Z,58.83
2022-12-09T02:01:14.971Z,61.35
2022-12-09T02:03:45.642Z,58.20
2022-12-09T02:06:18.563Z,58.28
2022-12-09T02:08:50.944Z,57.03
2022-12-09T02:11:48.094Z,59.50
2022-12-09T02:14:30.167Z,54.70
2022-12-09T02:17:27.933Z,60.63
2022-12-09T02:20:12.224Z,58.10
2022-12-09T02:23:02.979Z,57.53
2022-12-09T02:25:57.542Z,61.58
2022-12-09T02:28:56.997Z,67.78
2022-12-09T02:31:46.884Z,67.90
2022-12-09T02:34:22.232Z,72.72
2022-12-09T02:37:18.983Z,68.70
2022-12-09T02:40:02.960Z,69.50
2022-12-09T02:42:38.988Z,75.55
2022-12-09T02:45:12.967Z,74.20
2022-12-09T02:47:51.963Z,71.75
2022-12-09T02:50:31.643Z,71.28
2022-12-09T02:53:06.597Z,70.80
2022-12-09T02:55:42.785Z,73.70
2022-12-09T02:58:13.123Z,72.07
2022-12-09T03:00:46.031Z,69.43
2022-12-09T03:03:19.378Z,71.13
2022-12-09T03:06:17.910Z,75.38
2022-12-09T03:08:59.302Z,78.00
2022-12-09T03:11:31.103Z,78.95
2022-12-09T03:14:17.676Z,80.55
2022-12-09T03:17:26.838Z,82.38
2022-12-09T03:20:03.120Z,82.47
2022-12-09T03:22:37.502Z,85.05
2022-12-09T03:25:30.483Z,83.40
2022-12-09T03:28:07.445Z,83.60
2022-12-09T03:30:41.330Z,85.85
2022-12-09T03:33:12.857Z,85.25
2022-12-09T03:35:48.617Z,90.13
2022-12-09T03:38:22.834Z,87.57
2022-12-09T03:41:02.811Z,95.97
2022-12-09T03:43:38.824Z,91.57
2022-12-09T03:46:08.982Z,98.53
2022-12-09T03:48:39.176Z,95.60
2022-12-09T03:51:19.890Z,92.43
2022-12-09T03:54:22.102Z,85.68
2022-12-09T03:56:55.485Z,73.18
2022-12-09T03:59:28.208Z,78.55
2022-12-09T04:01:59.060Z,80.85
2022-12-09T04:04:30.623Z,79.82
2022-12-09T04:07:01.290Z,84.47
2022-12-09T04:12:02.324Z,85.88
2022-12-09T04:14:36.439Z,87.45
2022-12-09T04:17:06.881Z,85.57
2022-12-09T04:19:37.532Z,85.65
2022-12-09T04:22:07.773Z,83.43
2022-12-09T04:24:37.773Z,79.55
2022-12-09T04:27:07.941Z,76.68
2022-12-09T04:29:38.314Z,76.68
2022-12-09T04:32:08.836Z,77.10
2022-12-09T04:37:10.008Z,83.38
2022-12-09T04:39:43.699Z,78.78
2022-12-09T04:42:15.114Z,84.00
2022-12-09T04:44:45.342Z,83.07
2022-12-09T04:47:16.255Z,80.47
2022-12-09T04:49:47.307Z,71.05
2022-12-09T04:52:20.981Z,80.22
2022-12-09T04:54:52.771Z,78.20
2022-12-09T04:57:24.133Z,75.13
2022-12-09T04:59:54.575Z,78.13
2022-12-09T05:02:25.259Z,77.97
2022-12-09T05:04:55.407Z,75.55
2022-12-09T05:07:26.879Z,74.80
2022-12-09T05:09:57.264Z,74.05
2022-12-09T05:14:57.919Z,66.25
2022-12-09T05:17:28.275Z,56.83
2022-12-09T05:22:29.330Z,64.75
2022-12-09T06:02:15.164Z,59.92
2022-12-09T06:09:46.505Z,56.78
2022-12-09T06:12:17.657Z,49.88
2022-12-09T06:14:47.697Z,50.15
2022-12-09T06:17:18.712Z,52.50
2022-12-09T06:19:49.081Z,56.20
2022-12-09T06:22:19.649Z,59.55
2022-12-09T06:24:55.509Z,63.70
2022-12-09T06:31:10.202Z,60.63
2022-12-09T06:34:00.459Z,57.08
2022-12-09T06:36:33.329Z,51.15
2022-12-09T06:39:10.531Z,47.30
2022-12-09T06:41:45.174Z,38.63
2022-12-09T06:44:23.229Z,43.08
2022-12-09T06:54:44.989Z,38.83
2022-12-09T07:08:20.733Z,31.30
2022-12-09T07:10:56.555Z,31.88
2022-12-09T07:13:27.104Z,29.58
2022-12-09T07:15:57.628Z,32.97
2022-12-09T07:18:27.807Z,32.75
2022-12-09T07:20:58.694Z,30.33
2022-12-09T07:33:28.715Z,32.00
2022-12-09T07:36:01.124Z,30.10
2022-12-09T07:38:31.636Z,32.45
2022-12-09T07:41:08.259Z,27.55
2022-12-09T07:43:39.798Z,26.23
2022-12-09T07:46:10.790Z,24.00
2022-12-09T07:48:41.743Z,24.38
2022-12-09T07:51:14.589Z,22.63
2022-12-09T07:53:46.029Z,23.45
2022-12-09T07:56:17.897Z,24.45
2022-12-09T07:58:50.640Z,25.83
2022-12-09T08:01:25.306Z,23.75
2022-12-09T08:03:56.829Z,23.05
2022-12-09T08:06:29.659Z,19.67
2022-12-09T08:09:03.338Z,18.75
2022-12-09T08:11:34.998Z,15.77
2022-12-09T08:14:12.277Z,16.98
2022-12-09T08:16:44.721Z,19.52
2022-12-09T08:19:17.029Z,18.95
2022-12-09T08:21:51.451Z,18.55
2022-12-09T08:24:24.808Z,16.50
2022-12-09T10:07:53.840Z,14.25
2022-12-09T10:10:55.584Z,15.52
2022-12-09T11:04:48.013Z,20.45
2022-12-09T11:07:25.237Z,21.50
2022-12-09T11:10:19.902Z,21.60
2022-12-09T11:12:55.514Z,22.30
2022-12-09T11:15:32.364Z,21.17
2022-12-09T11:18:08.846Z,26.88
2022-12-09T11:20:40.129Z,22.73
2022-12-09T11:23:20.418Z,23.52
2022-12-09T11:26:05.340Z,26.30
2022-12-09T11:28:38.511Z,23.98
2022-12-09T11:31:29.592Z,25.45
2022-12-09T11:34:05.375Z,25.27
2022-12-09T11:36:42.324Z,27.80
2022-12-09T11:39:30.247Z,26.58
2022-12-09T11:42:21.186Z,25.75
2022-12-09T11:45:02.300Z,24.27
2022-12-09T11:48:24.155Z,25.63
2022-12-09T11:50:44.189Z,27.60
2022-12-09T11:53:36.879Z,26.55
2022-12-09T11:56:19.543Z,29.50
2022-12-09T11:59:15.124Z,32.03
2022-12-09T12:02:08.617Z,27.88
2022-12-09T12:04:51.034Z,29.15
2022-12-09T12:07:42.775Z,34.95
2022-12-09T12:10:39.439Z,32.45
2022-12-09T12:13:27.204Z,34.22
2022-12-09T12:16:14.384Z,34.42
2022-12-09T12:19:13.756Z,40.53
2022-12-09T12:22:12.416Z,38.38
2022-12-09T12:25:18.053Z,42.00
2022-12-09T12:28:17.263Z,40.75
2022-12-09T12:31:23.903Z,43.95
2022-12-09T12:34:27.156Z,44.88
2022-12-09T12:37:24.647Z,43.10
2022-12-09T12:40:26.934Z,40.33
2022-12-09T12:43:23.889Z,37.22
2022-12-09T12:46:14.298Z,39.45
2022-12-09T12:49:14.883Z,36.85
2022-12-09T12:52:39.378Z,35.95
2022-12-09T12:55:24.901Z,35.90
2022-12-09T12:58:25.641Z,34.38
2022-12-09T13:04:15.853Z,33.08
2022-12-09T13:07:05.906Z,34.67
2022-12-09T13:09:46.509Z,34.78
2022-12-09T13:14:56.297Z,36.70
2022-12-09T13:17:32.148Z,38.05
2022-12-09T13:20:05.527Z,35.83
2022-12-09T13:22:56.994Z,35.78
2022-12-09T13:25:56.653Z,35.70
2022-12-09T13:28:41.656Z,35.95
2022-12-09T13:31:13.720Z,36.63
2022-12-09T13:34:10.068Z,37.25
2022-12-09T13:36:44.647Z,39.75
2022-12-09T13:39:35.121Z,43.38
2022-12-09T13:42:17.318Z,43.45
2022-12-09T13:44:48.505Z,41.95
2022-12-09T13:47:38.226Z,46.25
2022-12-09T13:50:23.811Z,44.73
2022-12-09T13:52:59.050Z,43.25
2022-12-09T13:55:35.031Z,46.50
2022-12-09T13:58:32.675Z,45.65
2022-12-09T14:01:31.471Z,46.92
2022-12-09T14:04:13.992Z,46.03
2022-12-09T14:07:10.039Z,45.20
2022-12-09T14:09:53.095Z,41.42
2022-12-09T14:13:01.848Z,43.75
2022-12-09T14:15:38.408Z,45.13
2022-12-09T14:18:30.155Z,48.72
2022-12-09T14:21:27.229Z,50.63
2022-12-09T14:24:30.735Z,55.20
2022-12-09T14:27:18.261Z,50.70
2022-12-09T14:29:56.125Z,53.58
2022-12-09T14:32:38.899Z,52.17
2022-12-09T14:35:24.996Z,56.00
2022-12-09T14:38:24.050Z,50.40
2022-12-09T14:41:08.146Z,52.70
2022-12-09T14:44:02.577Z,51.20
2022-12-09T14:46:39.919Z,54.72
2022-12-09T14:49:19.570Z,56.60
2022-12-09T14:51:53.100Z,53.35
2022-12-09T14:54:30.161Z,54.17
2022-12-09T14:57:02.642Z,54.33
2022-12-09T14:59:34.411Z,58.95
2022-12-09T15:02:25.451Z,58.33
2022-12-09T15:04:56.721Z,58.90
2022-12-09T15:07:30.280Z,57.30
2022-12-09T15:10:07.512Z,55.03
2022-12-09T15:12:43.507Z,56.58
2022-12-09T15:15:27.960Z,53.88
2022-12-09T15:18:19.474Z,46.97
2022-12-09T15:21:03.062Z,46.30
2022-12-09T15:23:36.324Z,43.05
2022-12-09T15:26:31.596Z,46.90
2022-12-09T15:29:02.716Z,44.05
2022-12-09T15:31:34.586Z,45.30
2022-12-09T15:34:19.358Z,47.17
2022-12-09T15:36:57.202Z,52.45
2022-12-09T15:39:48.741Z,48.05
2022-12-09T15:42:27.752Z,44.28
2022-12-09T15:45:11.603Z,44.53
2022-12-09T15:48:07.541Z,49.47
2022-12-09T15:50:58.499Z,50.00
2022-12-09T15:53:40.912Z,47.88
2022-12-09T15:56:20.026Z,45.00
2022-12-09T15:58:54.620Z,46.95
2022-12-09T16:01:29.153Z,45.92
2022-12-09T16:04:02.311Z,45.13
2022-12-09T16:06:39.941Z,44.40
2022-12-09T16:09:20.848Z,45.28
2022-12-09T16:11:54.077Z,40.92
2022-12-09T16:14:26.561Z,43.47
2022-12-09T16:17:03.072Z,44.47
2022-12-09T16:19:39.962Z,42.95
2022-12-09T16:22:23.927Z,47.28
2022-12-09T16:25:14.592Z,46.58
2022-12-09T16:27:50.924Z,45.50
2022-12-09T16:30:25.327Z,47.47
2022-12-09T16:32:57.301Z,47.72
2022-12-09T16:35:31.011Z,48.08
2022-12-09T16:38:21.125Z,47.47
2022-12-09T16:41:08.713Z,46.90
2022-12-09T16:43:43.867Z,48.28
2022-12-09T16:46:39.294Z,46.55
2022-12-09T16:49:10.095Z,46.60
2022-12-09T16:51:40.981Z,44.75
2022-12-09T16:54:20.464Z,45.08
2022-12-09T16:56:53.913Z,43.13
2022-12-09T16:59:23.939Z,45.90
2022-12-09T17:01:53.982Z,47.25
2022-12-09T17:04:30.335Z,48.97
2022-12-09T17:07:00.516Z,47.90
2022-12-09T17:09:30.447Z,52.83
2022-12-09T17:12:00.427Z,55.70
2022-12-09T17:14:30.847Z,54.22
2022-12-09T17:17:00.890Z,53.92
2022-12-09T17:19:31.296Z,56.30
2022-12-09T17:22:01.433Z,56.08
2022-12-09T17:24:31.634Z,57.88
2022-12-09T17:27:01.789Z,60.70
2022-12-09T17:29:32.627Z,61.60
2022-12-09T17:32:02.683Z,62.58
2022-12-09T17:34:32.844Z,64.45
2022-12-09T17:37:02.853Z,67.72
2022-12-09T17:39:32.837Z,66.35
2022-12-09T17:42:03.144Z,65.03
2022-12-09T17:44:33.139Z,63.55
2022-12-09T17:47:03.139Z,64.10
2022-12-09T17:49:33.731Z,61.50
2022-12-09T17:54:33.102Z,60.78
2022-12-09T17:57:03.050Z,58.20
2022-12-09T17:59:33.871Z,63.05
2022-12-09T18:02:06.338Z,57.75
2022-12-09T18:04:39.533Z,60.88
2022-12-09T18:07:10.228Z,61.58
2022-12-09T18:12:10.336Z,57.92
2022-12-09T18:14:40.895Z,56.00
2022-12-09T18:17:12.241Z,64.88
2022-12-09T18:19:42.836Z,59.15
2022-12-09T18:22:13.225Z,67.18
2022-12-09T18:24:43.333Z,65.55
2022-12-09T18:27:13.349Z,65.82
2022-12-09T18:29:43.729Z,64.05
2022-12-09T18:32:15.556Z,67.28
2022-12-09T18:34:51.383Z,63.00
2022-12-09T18:37:32.588Z,63.75
2022-12-09T18:40:07.059Z,63.35
2022-12-09T18:42:38.439Z,57.60
2022-12-09T18:45:09.566Z,57.75
2022-12-09T18:47:40.342Z,56.10
2022-12-09T18:52:42.887Z,54.03
2022-12-09T18:55:13.445Z,53.10
2022-12-09T18:57:44.738Z,51.25
2022-12-09T19:00:18.381Z,50.78
2022-12-09T19:02:48.933Z,49.97
2022-12-09T19:07:48.814Z,49.45
2022-12-09T19:10:19.349Z,45.97
2022-12-09T19:12:53.737Z,45.95
2022-12-09T19:15:26.618Z,43.72
2022-12-09T19:17:56.837Z,42.90
2022-12-09T19:20:29.411Z,41.22
2022-12-09T19:22:59.423Z,36.80
2022-12-09T19:25:29.457Z,37.58
2022-12-09T19:27:59.363Z,36.22
2022-12-09T19:30:31.073Z,34.85
2022-12-09T19:33:02.137Z,37.08
2022-12-09T19:35:32.179Z,38.60
2022-12-09T19:38:02.467Z,36.88
2022-12-09T19:40:32.327Z,33.95
2022-12-09T19:43:02.351Z,35.63
2022-12-09T19:45:32.734Z,36.38
2022-12-09T19:48:02.594Z,35.53
2022-12-09T19:50:33.351Z,35.72
2022-12-09T19:55:32.423Z,33.45
2022-12-09T19:58:05.975Z,36.58
2022-12-09T20:00:41.607Z,35.90
2022-12-09T20:03:15.912Z,38.10
2022-12-09T20:05:58.018Z,36.10
2022-12-09T20:08:28.297Z,38.65
2022-12-09T20:11:02.216Z,35.22
2022-12-09T20:13:32.318Z,37.33
2022-12-09T20:16:10.030Z,38.28
2022-12-09T20:18:41.050Z,37.17
2022-12-09T20:21:13.329Z,34.53
2022-12-09T20:23:45.138Z,36.33
2022-12-09T20:26:19.437Z,35.85
2022-12-09T20:28:51.624Z,37.80
2022-12-09T20:31:24.903Z,38.35
2022-12-09T20:34:03.314Z,39.30
2022-12-09T20:36:35.281Z,37.75
2022-12-09T20:39:12.855Z,33.78
2022-12-09T20:41:44.007Z,36.55
2022-12-09T20:44:15.797Z,37.65
2022-12-09T20:46:49.744Z,40.38
2022-12-09T20:49:22.121Z,40.92
2022-12-09T20:51:52.179Z,39.20
2022-12-09T20:54:22.127Z,39.80
2022-12-09T20:56:52.134Z,41.38
2022-12-09T20:59:22.321Z,40.70
2022-12-09T21:01:52.337Z,40.47
2022-12-09T21:04:23.384Z,40.10
2022-12-09T21:06:56.485Z,41.40
2022-12-09T21:09:29.028Z,37.72
2022-12-09T21:12:02.452Z,39.72
2022-12-09T21:14:37.316Z,37.75
2022-12-09T21:17:08.372Z,37.15
2022-12-09T21:19:39.143Z,37.40
2022-12-09T21:24:38.917Z,36.67
2022-12-09T21:27:08.744Z,35.90
2022-12-09T21:29:39.489Z,37.07
2022-12-09T21:34:38.827Z,36.20
2022-12-09T21:37:08.897Z,36.10
2022-12-09T21:39:38.809Z,38.95
2022-12-09T21:42:08.842Z,35.83
2022-12-09T21:44:38.858Z,34.15
2022-12-09T21:47:08.677Z,37.60
2022-12-09T21:49:38.557Z,38.23
2022-12-09T21:52:08.708Z,36.42
2022-12-09T21:54:39.770Z,36.33
2022-12-09T21:57:09.885Z,36.60
2022-12-09T21:59:39.799Z,39.40
2022-12-09T22:02:10.078Z,38.20
2022-12-09T22:04:40.271Z,37.58
2022-12-09T22:07:10.178Z,36.78
2022-12-09T22:09:40.114Z,36.10
2022-12-09T22:12:10.446Z,36.78
2022-12-09T22:14:40.464Z,36.15
2022-12-09T22:17:10.358Z,34.67
2022-12-09T22:19:40.486Z,33.05
2022-12-09T22:22:10.514Z,33.45
2022-12-09T22:24:40.727Z,32.67
2022-12-09T22:27:10.847Z,34.13
2022-12-09T22:29:40.868Z,34.80
2022-12-09T22:32:10.795Z,34.53
2022-12-09T22:34:40.814Z,32.92
2022-12-09T22:37:35.270Z,33.15
2022-12-09T22:40:00.605Z,32.67
2022-12-09T22:42:32.103Z,33.08
2022-12-09T22:45:02.083Z,31.25
2022-12-09T22:47:31.942Z,35.92
2022-12-09T22:50:01.837Z,32.83
2022-12-09T22:52:33.017Z,35.25
2022-12-09T22:55:04.287Z,32.35
2022-12-09T22:57:36.425Z,32.55
2022-12-09T23:00:13.946Z,33.25
2022-12-09T23:02:44.617Z,31.77
2022-12-09T23:07:45.003Z,31.83
2022-12-09T23:10:15.625Z,31.15
2022-12-09T23:12:45.913Z,34.97
2022-12-09T23:15:16.271Z,36.25
2022-12-09T23:17:46.848Z,36.70
2022-12-09T23:20:17.222Z,46.25
2022-12-09T23:22:47.816Z,43.33
2022-12-09T23:25:18.308Z,46.97
2022-12-09T23:27:48.759Z,43.85
2022-12-09T23:30:19.413Z,39.42
2022-12-09T23:32:49.817Z,38.78
2022-12-09T23:35:20.459Z,39.05
2022-12-09T23:37:50.879Z,40.13
2022-12-09T23:40:22.326Z,38.38
2022-12-09T23:42:55.954Z,39.58
2022-12-09T23:45:26.909Z,40.97
2022-12-09T23:47:57.301Z,40.38
2022-12-09T23:50:28.274Z,40.25
2022-12-09T23:52:58.707Z,36.90
2022-12-09T23:55:29.104Z,41.92
2022-12-09T23:57:59.455Z,39.92
